Port Harcourt International Airport

DNPO · Rivers, 尼日利亚

罗盘
风向 的 Port Harcourt International Airport 3/21
风: 0 kt, 0 beaufort


改变
0 ft 1.000 2.000 3.000 4.000 5.000
Cloud Cloud Cloud Cloud
SCT 800
METAR DNPO 141900Z 00000KT 9999 SCT008 27/25 Q1012 NOSIG

METAR Port Harcourt International Airport - DNPO/PHC

Port Harcourt International Airport是,尼日利亚中的中型机场。 该机场位于纬度5,01549和经度6,94959。 该机场有一条跑道: 3/21. 本场的ICAO机场代码为DNPO。 该机场的IATA代码为PHC。 机场在Kano FIR中。

该航空气象观测是针对Port Harcourt International Airport在2024年6月14日 20:00, 当地时间进行的。

机场观察

可变方向的风很小或没有风。

可见度为10 km 或者更多。

有疏云,零星散落的云朵在800 ft的高度。 没有观察到天花板。

温度和风寒是27 °C。 热指数为31。 露点为25 °C,相对湿度为89%。 海平面上的气压为1012 hPa (QNH)。

白天

今天,太阳从06:20升起,在18:44降落。 这适用于Port Harcourt International Airport,世界夏令时可能有所不同。 当地时间与世界标准时间之间的时差为+1 小时。 夏令时目前正在进行中。

公司介绍

我们没有关于这个机场的公司信息。

体会

到Vliegles.nl去找飞行课程,跳伞和其他飞行体验。 浏览页面,了解Port Harcourt International Airport附近所有可用的活动。 你也可以使用搜索功能来寻找你所在地附近的特定飞行课程、跳伞或其他飞行体验。

跑道

Id 标题 侧风 逆风 侧风 %
3/21 030°-210°

逆风成分最大的方向会被突出显示,并用于横风计算。 这并不一定意味着这个方向在使用。

乌云

800 ft SCT 疏云,零星散落的云朵

温度 & 天气

温度 27 °C
露点 25 °C
相对湿度 89%
热度指数 31 °C
Kp-index 1 (0-9)

白天

日出
06:20 (9:46)
中午
12:32
日落
18:44

小工具

你想在你的网站上有一个关于Port Harcourt International Airport的当前航空天气(METAR)的小部件吗?

显示HTML代码
报告变更